Time;durP1;ratioP1;P1;durP2;ratioP2;P2;SDS_P1;SDS_P2;PMS_P1;PMS_P2;Temp;Humidity;BMP_temperature;BMP_pressure;BME280_temperature;BME280_humidity;BME280_pressure;Samples;Min_cycle;Max_cycle;Signal;HPM_P1;HPM_P2
2023/12/08 00:00:20;;;;;;;14.27;10.82;;;6.50;71.00;;;;;;5092638;28;20051;-53
2023/12/08 00:02:49;;;;;;;15.98;10.82;;;6.50;70.90;;;;;;5089889;28;20123;-54
2023/12/08 00:05:16;;;;;;;15.85;10.50;;;6.50;71.00;;;;;;5084989;28;20040;-55
2023/12/08 00:07:46;;;;;;;14.00;9.85;;;6.50;70.90;;;;;;5092704;28;20090;-52
2023/12/08 00:10:12;;;;;;;13.55;10.52;;;6.50;70.90;;;;;;5092559;28;20064;-51
2023/12/08 00:12:39;;;;;;;14.95;10.43;;;6.50;70.90;;;;;;5086013;28;20494;-56
2023/12/08 00:15:06;;;;;;;12.18;9.73;;;6.50;70.80;;;;;;5082344;28;20044;-52
2023/12/08 00:17:43;;;;;;;12.93;9.82;;;6.60;70.90;;;;;;5092562;28;20043;-55
2023/12/08 00:20:10;;;;;;;14.65;10.27;;;6.60;70.80;;;;;;5082207;28;20462;-55
2023/12/08 00:22:37;;;;;;;15.32;10.02;;;6.60;70.90;;;;;;5081790;28;20115;-54
2023/12/08 00:25:06;;;;;;;15.68;11.38;;;6.60;70.90;;;;;;5079170;28;20154;-51
2023/12/08 00:27:33;;;;;;;16.58;11.10;;;6.60;70.60;;;;;;5087986;28;20075;-51
2023/12/08 00:30:01;;;;;;;14.88;10.43;;;6.60;70.60;;;;;;5091204;28;20395;-55
2023/12/08 00:32:28;;;;;;;14.07;10.13;;;6.60;70.60;;;;;;5091149;28;20643;-54
2023/12/08 00:34:55;;;;;;;15.00;11.15;;;6.60;70.70;;;;;;5078843;28;20557;-55
2023/12/08 00:37:25;;;;;;;13.70;9.48;;;6.60;70.70;;;;;;5087489;28;20525;-54
2023/12/08 00:39:55;;;;;;;17.65;11.68;;;6.60;70.60;;;;;;5090394;28;20052;-54
2023/12/08 00:42:25;;;;;;;12.88;9.45;;;6.60;70.60;;;;;;5082981;28;20463;-54
2023/12/08 00:44:52;;;;;;;14.15;10.23;;;6.60;70.60;;;;;;5090743;28;20135;-52
2023/12/08 00:47:20;;;;;;;14.48;9.75;;;6.70;70.70;;;;;;5090667;28;20124;-51
2023/12/08 00:49:53;;;;;;;14.88;10.38;;;6.70;70.60;;;;;;5087362;28;20036;-53
2023/12/08 00:52:20;;;;;;;16.27;11.20;;;6.70;70.50;;;;;;5084126;28;20064;-54
2023/12/08 00:54:48;;;;;;;15.25;10.95;;;6.70;70.60;;;;;;5082087;28;20048;-53
2023/12/08 00:57:20;;;;;;;14.10;10.57;;;6.70;70.50;;;;;;5088819;28;20140;-51
2023/12/08 00:59:53;;;;;;;15.55;10.57;;;6.70;70.40;;;;;;5091215;28;20097;-53
2023/12/08 01:02:20;;;;;;;14.98;10.50;;;6.70;70.30;;;;;;5085397;28;20050;-51
2023/12/08 01:04:49;;;;;;;13.60;9.90;;;6.70;70.30;;;;;;5089127;28;20401;-55
2023/12/08 01:07:15;;;;;;;15.20;10.23;;;6.60;70.30;;;;;;5089701;28;20502;-52
2023/12/08 01:09:42;;;;;;;15.15;10.10;;;6.70;70.40;;;;;;5089554;28;20060;-55
2023/12/08 01:12:09;;;;;;;12.75;9.75;;;6.70;70.20;;;;;;5085744;28;20551;-56
2023/12/08 01:14:38;;;;;;;13.02;9.63;;;6.70;70.10;;;;;;5090770;28;20040;-53
2023/12/08 01:17:10;;;;;;;13.20;9.80;;;6.70;70.10;;;;;;5079869;28;20051;-54
2023/12/08 01:19:46;;;;;;;13.55;9.57;;;6.60;70.00;;;;;;5079699;28;20135;-55
2023/12/08 01:22:14;;;;;;;13.57;9.60;;;6.70;70.10;;;;;;5078898;28;20049;-53
2023/12/08 01:24:43;;;;;;;14.07;10.02;;;6.70;70.00;;;;;;5085736;28;20502;-55
2023/12/08 01:27:20;;;;;;;13.18;9.93;;;6.70;70.00;;;;;;5083567;28;20517;-54
2023/12/08 01:29:53;;;;;;;12.25;8.90;;;6.70;70.00;;;;;;5087468;28;20650;-52
2023/12/08 01:32:22;;;;;;;15.05;10.43;;;6.70;70.00;;;;;;5084284;28;20259;-52
2023/12/08 01:34:53;;;;;;;14.60;9.43;;;6.70;70.00;;;;;;5091096;28;20119;-55
2023/12/08 01:37:23;;;;;;;13.70;9.38;;;6.70;70.00;;;;;;5091248;28;20047;-52
2023/12/08 01:39:50;;;;;;;12.40;9.90;;;6.70;70.10;;;;;;5080617;28;20051;-55
2023/12/08 01:42:19;;;;;;;13.50;10.07;;;6.70;70.30;;;;;;5087708;28;20623;-53
2023/12/08 01:44:46;;;;;;;13.52;10.10;;;6.70;70.30;;;;;;5091011;28;20101;-53
2023/12/08 01:47:16;;;;;;;13.60;9.68;;;6.70;70.40;;;;;;5085419;28;20091;-54
2023/12/08 01:49:45;;;;;;;13.68;10.10;;;6.70;70.30;;;;;;5082547;28;20051;-55
2023/12/08 01:52:20;;;;;;;12.05;8.75;;;6.80;70.40;;;;;;5081958;28;20514;-56
2023/12/08 01:54:50;;;;;;;13.15;9.70;;;6.80;70.40;;;;;;5080361;28;20514;-53
2023/12/08 01:57:17;;;;;;;14.25;10.38;;;6.80;70.60;;;;;;5086944;28;20121;-52
2023/12/08 01:59:44;;;;;;;15.70;10.13;;;6.80;70.60;;;;;;5091040;28;20051;-53
2023/12/08 02:02:16;;;;;;;15.10;10.07;;;6.80;70.70;;;;;;5081419;28;20055;-55
2023/12/08 02:04:44;;;;;;;15.32;10.07;;;6.80;70.80;;;;;;5080952;28;20052;-51
2023/12/08 02:07:14;;;;;;;12.13;9.15;;;6.80;70.80;;;;;;5082293;28;20046;-52
2023/12/08 02:09:41;;;;;;;11.60;9.48;;;6.80;70.80;;;;;;5090985;28;20093;-51
2023/12/08 02:12:09;;;;;;;15.95;10.02;;;6.80;70.80;;;;;;5088194;28;20101;-51
2023/12/08 02:14:44;;;;;;;14.23;9.57;;;6.80;70.80;;;;;;5079132;28;20453;-53
2023/12/08 02:17:21;;;;;;;13.85;9.73;;;6.80;70.80;;;;;;5075530;28;20051;-55
2023/12/08 02:19:49;;;;;;;14.80;10.23;;;6.80;70.70;;;;;;5090312;28;20048;-54
2023/12/08 02:22:17;;;;;;;13.10;10.43;;;6.80;70.70;;;;;;5088937;28;20525;-55
2023/12/08 02:24:44;;;;;;;13.43;9.43;;;6.80;70.80;;;;;;5083918;28;20116;-54
2023/12/08 02:27:12;;;;;;;14.02;11.13;;;6.80;70.90;;;;;;5084708;28;20044;-55
2023/12/08 02:29:42;;;;;;;13.00;10.02;;;6.80;70.90;;;;;;5090509;28;20050;-52
2023/12/08 02:32:22;;;;;;;14.48;9.73;;;6.80;70.90;;;;;;5088847;28;20036;-52
2023/12/08 02:34:50;;;;;;;15.02;11.18;;;6.80;71.00;;;;;;5085248;28;20499;-53
2023/12/08 02:37:19;;;;;;;12.32;9.73;;;6.80;71.10;;;;;;5084105;28;20127;-51
2023/12/08 02:39:48;;;;;;;16.83;10.80;;;6.80;71.20;;;;;;5090284;28;20105;-53
2023/12/08 02:42:15;;;;;;;14.93;10.55;;;6.80;71.10;;;;;;5086183;28;20051;-55
2023/12/08 02:44:42;;;;;;;15.40;10.52;;;6.80;70.90;;;;;;5086277;28;20105;-54
2023/12/08 02:47:08;;;;;;;13.68;9.57;;;6.80;70.90;;;;;;5089101;28;20036;-54
2023/12/08 02:49:35;;;;;;;14.55;9.68;;;6.80;70.90;;;;;;5090143;28;20072;-51
2023/12/08 02:52:09;;;;;;;13.37;10.80;;;6.90;71.00;;;;;;5082041;28;20059;-51
2023/12/08 02:54:36;;;;;;;13.48;9.70;;;6.90;71.10;;;;;;5084413;28;20297;-55
2023/12/08 02:57:08;;;;;;;13.10;9.32;;;6.90;71.00;;;;;;5085857;28;20089;-50
2023/12/08 02:59:35;;;;;;;13.40;10.18;;;6.80;70.90;;;;;;5090090;28;20066;-51
2023/12/08 03:02:01;;;;;;;15.30;11.27;;;6.90;70.80;;;;;;5085922;28;21017;-55
2023/12/08 03:04:29;;;;;;;13.27;9.65;;;6.90;70.80;;;;;;5080709;28;20047;-51
2023/12/08 03:06:55;;;;;;;14.13;9.10;;;6.80;71.00;;;;;;5087489;28;20043;-52
2023/12/08 03:09:24;;;;;;;11.48;8.85;;;6.80;71.10;;;;;;5084302;28;20048;-54
2023/12/08 03:12:03;;;;;;;17.80;9.55;;;6.80;71.20;;;;;;5085523;28;20111;-56
2023/12/08 03:14:30;;;;;;;12.83;9.40;;;6.80;71.40;;;;;;5092864;22;20044;-53
2023/12/08 03:16:57;;;;;;;12.88;10.18;;;6.80;71.50;;;;;;5075615;28;20292;-55
2023/12/08 03:19:23;;;;;;;14.00;10.15;;;6.80;71.70;;;;;;5069577;28;20051;-56
2023/12/08 03:21:53;;;;;;;13.90;9.40;;;6.80;71.70;;;;;;5055749;28;20134;-58
2023/12/08 03:24:20;;;;;;;13.35;9.95;;;6.80;71.60;;;;;;5058216;28;20470;-56
2023/12/08 03:26:47;;;;;;;14.35;9.77;;;6.80;71.60;;;;;;5062715;28;20047;-54
2023/12/08 03:29:15;;;;;;;12.30;8.98;;;6.80;71.70;;;;;;5069196;28;20039;-57
2023/12/08 03:31:44;;;;;;;14.32;9.63;;;6.80;71.70;;;;;;5066414;28;20048;-57
2023/12/08 03:34:11;;;;;;;11.40;9.25;;;6.80;71.70;;;;;;5068296;28;20072;-56
2023/12/08 03:36:40;;;;;;;17.45;10.40;;;6.80;71.80;;;;;;5069047;28;20083;-57
2023/12/08 03:39:10;;;;;;;14.25;9.88;;;6.80;71.80;;;;;;5069279;28;20063;-56
2023/12/08 03:41:37;;;;;;;13.32;9.80;;;6.80;71.90;;;;;;5061791;28;20545;-57
2023/12/08 03:44:05;;;;;;;12.68;9.90;;;6.80;71.90;;;;;;5060946;28;20048;-58
2023/12/08 03:46:34;;;;;;;13.15;9.93;;;6.80;71.80;;;;;;5069038;28;20040;-57
2023/12/08 03:49:00;;;;;;;15.15;10.98;;;6.80;71.70;;;;;;5069230;28;20061;-56
2023/12/08 03:51:31;;;;;;;12.63;9.30;;;6.80;71.80;;;;;;5063018;28;20079;-56
2023/12/08 03:53:59;;;;;;;12.85;10.10;;;6.80;71.90;;;;;;5056434;28;20673;-56
2023/12/08 03:56:26;;;;;;;14.43;11.10;;;6.80;72.00;;;;;;5061851;28;20036;-58
2023/12/08 03:58:53;;;;;;;16.55;10.77;;;6.70;72.70;;;;;;5068328;28;20044;-54
2023/12/08 04:01:20;;;;;;;14.82;10.77;;;6.70;72.10;;;;;;5061114;28;20123;-57
2023/12/08 04:03:47;;;;;;;17.02;10.88;;;6.70;72.20;;;;;;5062522;28;20037;-57
2023/12/08 04:06:16;;;;;;;17.58;11.00;;;6.70;72.30;;;;;;5067883;28;20053;-56
2023/12/08 04:08:43;;;;;;;15.77;10.48;;;6.60;72.40;;;;;;5068067;28;20041;-57
2023/12/08 04:11:10;;;;;;;16.00;10.93;;;6.60;72.60;;;;;;5059457;28;20060;-56
2023/12/08 04:13:40;;;;;;;16.63;10.95;;;6.60;72.70;;;;;;5068508;28;20139;-57
2023/12/08 04:16:08;;;;;;;15.68;11.00;;;6.60;72.90;;;;;;5071813;28;20048;-57
2023/12/08 04:18:37;;;;;;;13.13;9.10;;;6.60;73.00;;;;;;5072060;28;20433;-55
2023/12/08 04:21:04;;;;;;;14.23;11.07;;;6.60;73.00;;;;;;5065390;28;20434;-53
2023/12/08 04:23:31;;;;;;;17.63;11.38;;;6.60;73.10;;;;;;5068372;28;20037;-57
2023/12/08 04:25:58;;;;;;;15.90;11.77;;;6.50;73.10;;;;;;5063765;28;20090;-59
2023/12/08 04:28:27;;;;;;;14.98;10.02;;;6.50;73.20;;;;;;5071911;28;20039;-56
2023/12/08 04:30:57;;;;;;;16.48;10.77;;;6.50;73.30;;;;;;5072232;28;20509;-56
2023/12/08 04:33:24;;;;;;;15.10;11.10;;;6.50;73.40;;;;;;5046528;28;20462;-55
2023/12/08 04:35:51;;;;;;;14.05;10.70;;;6.50;73.60;;;;;;5069509;28;20124;-53
2023/12/08 04:38:18;;;;;;;14.43;11.38;;;6.50;73.70;;;;;;5070726;28;20567;-53
2023/12/08 04:40:44;;;;;;;18.75;11.73;;;6.50;73.70;;;;;;5065101;28;20448;-56
2023/12/08 04:43:13;;;;;;;14.10;9.95;;;6.50;73.80;;;;;;5067166;28;20102;-57
2023/12/08 04:45:41;;;;;;;15.25;11.23;;;6.50;73.90;;;;;;5071812;28;20562;-54
2023/12/08 04:48:08;;;;;;;15.18;11.23;;;6.50;73.80;;;;;;5069564;28;20569;-53
2023/12/08 04:50:35;;;;;;;15.45;11.20;;;6.50;73.80;;;;;;5068938;28;20045;-56
2023/12/08 04:53:09;;;;;;;15.75;11.10;;;6.50;73.90;;;;;;5070002;28;20040;-57
2023/12/08 04:55:41;;;;;;;15.65;11.68;;;6.50;74.00;;;;;;5061575;28;20048;-56
2023/12/08 04:58:09;;;;;;;17.38;11.50;;;6.50;74.00;;;;;;5070228;28;20045;-54
2023/12/08 05:00:36;;;;;;;15.02;10.85;;;6.60;74.10;;;;;;5071611;28;20045;-54
2023/12/08 05:03:05;;;;;;;17.48;11.57;;;6.60;74.10;;;;;;5064466;28;20491;-56
2023/12/08 05:05:34;;;;;;;14.35;11.23;;;6.60;74.10;;;;;;5068793;28;20040;-58
2023/12/08 05:08:00;;;;;;;15.23;10.98;;;6.60;74.00;;;;;;5069406;28;20511;-54
2023/12/08 05:10:27;;;;;;;16.10;11.40;;;6.60;74.00;;;;;;5064751;28;20067;-55
2023/12/08 05:12:54;;;;;;;13.02;9.75;;;6.60;74.00;;;;;;5068412;28;20040;-55
2023/12/08 05:15:21;;;;;;;14.38;10.98;;;6.60;74.10;;;;;;5071404;28;20124;-55
2023/12/08 05:17:47;;;;;;;14.85;10.82;;;6.60;74.10;;;;;;5070718;28;20512;-56
2023/12/08 05:20:14;;;;;;;15.02;10.63;;;6.60;74.10;;;;;;5068169;28;20048;-57
2023/12/08 05:22:45;;;;;;;14.63;10.50;;;6.60;74.10;;;;;;5065043;28;20102;-57
2023/12/08 05:25:14;;;;;;;13.75;10.43;;;6.60;74.10;;;;;;5062429;28;20526;-54
2023/12/08 05:27:41;;;;;;;14.88;10.90;;;6.60;74.10;;;;;;5067142;28;20094;-57
2023/12/08 05:30:08;;;;;;;15.43;11.60;;;6.70;74.30;;;;;;5071245;28;20064;-56
2023/12/08 05:32:35;;;;;;;17.90;11.82;;;6.70;74.20;;;;;;5065722;28;20434;-55
2023/12/08 05:35:02;;;;;;;17.77;11.50;;;6.70;74.10;;;;;;5061910;28;20033;-58
2023/12/08 05:37:34;;;;;;;15.55;10.95;;;6.70;74.10;;;;;;5069629;28;20036;-57
2023/12/08 05:40:05;;;;;;;15.43;10.82;;;6.70;74.80;;;;;;5071328;28;20115;-57
2023/12/08 05:42:35;;;;;;;;;;;6.70;74.20;;;;;;5060058;28;20051;-57
2023/12/08 05:45:02;;;;;;;13.27;10.10;;;6.70;74.40;;;;;;5069315;28;20015;-57
2023/12/08 05:47:31;;;;;;;17.55;11.70;;;6.80;74.00;;;;;;5058017;28;20033;-56
2023/12/08 05:50:01;;;;;;;16.83;11.55;;;6.80;74.20;;;;;;5045729;28;20045;-56
2023/12/08 05:52:34;;;;;;;16.98;11.80;;;6.80;74.30;;;;;;5051091;28;20048;-56
2023/12/08 05:55:06;;;;;;;13.68;10.32;;;6.80;74.20;;;;;;5061936;28;20044;-57
2023/12/08 05:57:36;;;;;;;16.88;10.65;;;6.80;74.20;;;;;;5066961;28;20044;-57
2023/12/08 06:00:06;;;;;;;16.90;11.35;;;6.80;74.30;;;;;;5070480;28;20067;-55
2023/12/08 06:02:38;;;;;;;16.40;11.73;;;6.80;74.50;;;;;;5065553;28;20055;-55
2023/12/08 06:05:05;;;;;;;17.15;12.20;;;6.80;74.60;;;;;;5065183;28;20055;-56
2023/12/08 06:07:31;;;;;;;15.07;10.68;;;6.80;74.60;;;;;;5069552;28;20082;-55
2023/12/08 06:10:02;;;;;;;15.90;11.73;;;6.90;74.70;;;;;;5052276;28;20076;-57
2023/12/08 06:12:29;;;;;;;17.20;12.25;;;6.90;74.70;;;;;;5045794;28;20052;-58
2023/12/08 06:15:00;;;;;;;15.57;11.20;;;6.90;74.70;;;;;;5066321;28;20071;-58
2023/12/08 06:17:32;;;;;;;18.42;12.20;;;6.90;74.80;;;;;;5062033;28;20056;-58
2023/12/08 06:20:00;;;;;;;15.80;11.60;;;7.00;74.80;;;;;;5067612;28;20485;-57
2023/12/08 06:22:29;;;;;;;17.70;12.00;;;7.00;74.70;;;;;;5061777;28;20051;-56
2023/12/08 06:25:02;;;;;;;16.65;11.80;;;7.00;74.70;;;;;;5055374;28;20091;-58
2023/12/08 06:27:29;;;;;;;17.67;12.27;;;7.10;74.60;;;;;;5065381;28;20028;-57
2023/12/08 06:29:56;;;;;;;15.07;11.68;;;7.00;74.50;;;;;;5068046;28;20558;-57
2023/12/08 06:32:27;;;;;;;17.23;12.50;;;7.00;74.40;;;;;;5063645;28;20455;-57
2023/12/08 06:34:55;;;;;;;17.50;12.32;;;7.00;74.40;;;;;;5063936;28;20428;-58
2023/12/08 06:37:24;;;;;;;18.50;12.43;;;7.10;74.50;;;;;;5065967;28;20063;-58
2023/12/08 06:39:52;;;;;;;16.02;11.63;;;7.00;74.40;;;;;;5066249;28;20045;-55
2023/12/08 06:42:18;;;;;;;17.88;12.73;;;7.10;74.40;;;;;;5053279;28;20084;-57
2023/12/08 06:44:45;;;;;;;15.55;11.18;;;7.10;74.40;;;;;;5065928;28;20052;-57
2023/12/08 06:47:14;;;;;;;18.05;12.45;;;7.10;74.40;;;;;;5062903;28;20049;-55
2023/12/08 06:49:40;;;;;;;17.08;11.93;;;7.10;74.40;;;;;;5069377;28;20040;-53
2023/12/08 06:52:07;;;;;;;17.67;12.15;;;7.10;74.40;;;;;;5059477;28;20127;-60
2023/12/08 06:54:34;;;;;;;18.27;11.38;;;7.10;74.50;;;;;;5056367;28;20449;-57
2023/12/08 06:57:03;;;;;;;16.92;12.48;;;7.10;74.50;;;;;;5061280;28;20099;-57
2023/12/08 06:59:30;;;;;;;15.50;12.05;;;7.10;74.50;;;;;;5067015;28;20083;-57
2023/12/08 07:01:57;;;;;;;16.42;11.55;;;7.10;74.40;;;;;;5067757;28;20564;-57
2023/12/08 07:04:28;;;;;;;16.15;12.13;;;7.10;74.50;;;;;;5059974;28;20521;-57
2023/12/08 07:06:55;;;;;;;15.35;11.18;;;7.10;74.50;;;;;;5068134;28;20465;-54
2023/12/08 07:09:22;;;;;;;20.10;13.63;;;7.10;74.50;;;;;;5069184;28;20048;-56
2023/12/08 07:11:49;;;;;;;16.88;11.95;;;7.20;74.50;;;;;;5064499;28;20503;-56
2023/12/08 07:14:16;;;;;;;17.70;12.43;;;7.20;74.60;;;;;;5065868;28;20040;-59
2023/12/08 07:16:45;;;;;;;15.55;11.57;;;7.20;74.60;;;;;;5065622;28;20568;-57
2023/12/08 07:19:14;;;;;;;16.73;12.20;;;7.20;74.60;;;;;;5062686;28;20187;-56
2023/12/08 07:21:42;;;;;;;16.27;12.60;;;7.20;74.60;;;;;;5068022;28;20399;-59
2023/12/08 07:24:11;;;;;;;15.32;11.93;;;7.20;74.60;;;;;;5061940;28;20419;-53
2023/12/08 07:26:40;;;;;;;16.67;12.07;;;7.20;74.60;;;;;;5060274;28;20037;-56
2023/12/08 07:29:09;;;;;;;17.67;12.70;;;7.20;74.60;;;;;;5068686;28;20052;-55
2023/12/08 07:31:36;;;;;;;19.00;13.18;;;7.20;74.60;;;;;;5069855;28;21674;-55
2023/12/08 07:34:02;;;;;;;18.25;12.63;;;7.20;74.60;;;;;;5066724;28;20120;-57
2023/12/08 07:36:29;;;;;;;17.70;12.95;;;7.20;74.70;;;;;;5068770;28;20093;-57
2023/12/08 07:38:56;;;;;;;19.95;13.35;;;7.20;74.70;;;;;;5069191;28;20048;-58
2023/12/08 07:41:23;;;;;;;17.25;12.52;;;7.20;74.80;;;;;;5064175;28;20040;-55
2023/12/08 07:43:54;;;;;;;19.58;13.35;;;7.30;74.90;;;;;;5061045;28;20129;-55
2023/12/08 07:46:24;;;;;;;18.20;13.20;;;7.20;74.80;;;;;;5061774;28;20068;-54
2023/12/08 07:48:50;;;;;;;16.75;12.52;;;7.30;74.80;;;;;;5061924;28;20094;-53
2023/12/08 07:51:18;;;;;;;19.00;13.88;;;7.30;74.80;;;;;;5066934;28;20147;-53
2023/12/08 07:53:45;;;;;;;20.42;13.15;;;7.30;74.80;;;;;;5063070;28;20037;-57
2023/12/08 07:56:13;;;;;;;17.55;12.75;;;7.30;74.80;;;;;;5071018;28;20036;-57
2023/12/08 07:58:42;;;;;;;19.23;13.52;;;7.30;74.80;;;;;;5066119;28;20102;-54
2023/12/08 08:01:09;;;;;;;18.67;13.05;;;7.30;74.80;;;;;;5067927;28;20048;-54
2023/12/08 08:03:35;;;;;;;17.35;12.30;;;7.30;74.90;;;;;;5066443;28;20071;-54
2023/12/08 08:06:02;;;;;;;17.65;13.23;;;7.40;74.90;;;;;;5069569;28;20044;-55
2023/12/08 08:08:29;;;;;;;17.35;13.05;;;7.40;74.80;;;;;;5065989;28;20044;-53
2023/12/08 08:10:56;;;;;;;18.52;13.10;;;7.40;74.90;;;;;;5064987;28;20495;-56
2023/12/08 08:13:23;;;;;;;19.38;13.95;;;7.40;74.90;;;;;;5067933;28;20115;-55
2023/12/08 08:15:52;;;;;;;18.38;13.13;;;7.40;74.90;;;;;;5048706;28;20409;-54
2023/12/08 08:18:18;;;;;;;21.92;13.75;;;7.40;74.90;;;;;;5067272;28;20437;-54
2023/12/08 08:20:45;;;;;;;17.55;12.80;;;7.40;74.90;;;;;;5070154;28;20094;-55
2023/12/08 08:23:12;;;;;;;17.58;13.00;;;7.40;75.00;;;;;;5067524;28;20060;-57
2023/12/08 08:25:41;;;;;;;16.75;12.68;;;7.40;75.00;;;;;;5065071;28;20098;-56
2023/12/08 08:28:08;;;;;;;17.02;13.18;;;7.40;75.50;;;;;;5054407;28;20089;-53
2023/12/08 08:30:37;;;;;;;19.52;13.90;;;7.40;75.70;;;;;;5072603;28;20596;-56
2023/12/08 08:33:05;;;;;;;21.85;14.27;;;7.40;75.20;;;;;;5068411;28;20044;-55
2023/12/08 08:35:32;;;;;;;17.70;13.68;;;7.40;75.20;;;;;;5067629;28;20045;-55
2023/12/08 08:38:04;;;;;;;17.42;13.32;;;7.50;75.30;;;;;;5067502;28;20048;-54
2023/12/08 08:40:31;;;;;;;18.60;14.18;;;7.50;75.40;;;;;;5071690;28;20040;-57
2023/12/08 08:43:06;;;;;;;16.23;12.27;;;7.50;75.50;;;;;;5061541;28;20127;-58
2023/12/08 08:45:33;;;;;;;17.05;13.15;;;7.50;75.60;;;;;;5066124;28;20112;-56
2023/12/08 08:48:03;;;;;;;17.75;12.82;;;7.50;75.60;;;;;;5066944;28;20105;-56
2023/12/08 08:50:30;;;;;;;18.42;13.20;;;7.50;75.80;;;;;;5069894;28;20043;-56
2023/12/08 08:53:17;;;;;;;17.65;13.57;;;7.60;75.90;;;;;;5071291;28;20119;-56
2023/12/08 08:55:49;;;;;;;17.45;11.98;;;7.60;75.90;;;;;;5065684;28;20463;-59
2023/12/08 08:58:15;;;;;;;18.50;11.93;;;7.60;76.00;;;;;;5068016;28;20048;-54
2023/12/08 09:00:45;;;;;;;19.88;12.57;;;7.60;76.00;;;;;;5071133;28;20147;-57
2023/12/08 09:03:17;;;;;;;16.30;12.23;;;7.50;76.00;;;;;;5061916;28;20052;-57
2023/12/08 09:05:49;;;;;;;17.63;12.63;;;7.70;76.10;;;;;;5068449;28;20048;-57
2023/12/08 09:08:19;;;;;;;13.80;10.60;;;7.70;76.10;;;;;;5068014;28;20044;-55
2023/12/08 09:10:45;;;;;;;14.85;11.52;;;7.70;76.10;;;;;;5069268;28;20116;-56
2023/12/08 09:13:14;;;;;;;15.80;11.50;;;7.70;76.10;;;;;;5062571;28;20529;-57
2023/12/08 09:15:40;;;;;;;16.85;11.60;;;7.80;76.20;;;;;;5069613;28;20449;-57
2023/12/08 09:18:07;;;;;;;16.30;11.13;;;7.80;76.30;;;;;;5068354;28;20618;-58
2023/12/08 09:20:36;;;;;;;16.95;12.18;;;7.80;76.30;;;;;;5067808;28;20053;-57
2023/12/08 09:23:03;;;;;;;13.75;10.68;;;7.80;76.90;;;;;;5065081;28;20098;-57
2023/12/08 09:25:32;;;;;;;17.13;11.52;;;7.80;76.30;;;;;;5065072;28;20051;-58
2023/12/08 09:28:02;;;;;;;16.80;12.13;;;7.90;76.40;;;;;;5066583;28;20097;-57
2023/12/08 09:30:33;;;;;;;14.93;11.43;;;7.90;76.50;;;;;;5069045;28;20069;-55
2023/12/08 09:33:00;;;;;;;15.77;11.65;;;7.90;76.50;;;;;;5065614;28;20120;-57
2023/12/08 09:35:27;;;;;;;18.90;12.18;;;7.90;76.50;;;;;;5067959;28;20503;-57
2023/12/08 09:37:54;;;;;;;17.10;11.45;;;8.00;76.60;;;;;;5068582;28;20071;-57
2023/12/08 09:40:23;;;;;;;18.63;12.35;;;8.00;76.60;;;;;;5071358;28;20051;-56
2023/12/08 09:42:57;;;;;;;14.27;10.57;;;8.00;76.60;;;;;;5064416;28;20099;-57
2023/12/08 09:45:29;;;;;;;18.23;11.55;;;8.10;76.70;;;;;;5070450;28;20119;-56
2023/12/08 09:48:06;;;;;;;18.88;11.63;;;8.10;76.60;;;;;;5051468;28;20590;-55
2023/12/08 09:50:44;;;;;;;16.27;11.98;;;8.10;76.80;;;;;;5068579;28;20057;-57
2023/12/08 09:53:14;;;;;;;17.70;12.65;;;8.20;76.80;;;;;;5063527;28;20040;-57
2023/12/08 09:55:43;;;;;;;15.02;11.40;;;8.30;76.90;;;;;;5062529;28;20048;-56
2023/12/08 09:58:11;;;;;;;15.50;11.88;;;8.30;76.90;;;;;;5069283;28;20500;-55
2023/12/08 10:00:38;;;;;;;15.90;11.57;;;8.30;76.80;;;;;;5070574;28;20159;-55
2023/12/08 10:03:05;;;;;;;20.15;12.32;;;8.40;76.80;;;;;;5067769;28;20403;-55
2023/12/08 10:05:37;;;;;;;21.67;12.20;;;8.40;76.90;;;;;;5065487;28;20085;-57
2023/12/08 10:08:08;;;;;;;16.67;11.43;;;8.50;76.90;;;;;;5069190;28;20410;-54
2023/12/08 10:10:37;;;;;;;18.40;11.20;;;8.50;77.10;;;;;;5069784;28;20032;-56
2023/12/08 10:13:06;;;;;;;20.17;12.23;;;8.50;77.20;;;;;;5066309;28;20395;-56
2023/12/08 10:15:35;;;;;;;16.48;12.10;;;8.60;77.40;;;;;;5067583;28;20041;-57
2023/12/08 10:18:04;;;;;;;17.92;10.75;;;8.60;77.50;;;;;;5068683;28;20055;-57
2023/12/08 10:20:33;;;;;;;18.05;10.18;;;8.70;77.70;;;;;;5066608;28;20075;-57
2023/12/08 10:22:59;;;;;;;17.70;11.07;;;8.70;77.70;;;;;;5066968;28;20040;-55
2023/12/08 10:25:30;;;;;;;20.90;11.35;;;8.70;77.80;;;;;;5067013;28;20094;-57
2023/12/08 10:28:02;;;;;;;15.27;11.00;;;8.80;78.00;;;;;;5068114;28;20121;-57
2023/12/08 10:30:34;;;;;;;19.63;12.13;;;8.80;78.00;;;;;;5070255;28;20051;-57
2023/12/08 10:33:01;;;;;;;32.15;17.85;;;8.80;78.10;;;;;;5067135;28;20452;-56
2023/12/08 10:35:33;;;;;;;26.75;16.13;;;8.90;78.20;;;;;;5061765;28;20410;-57
2023/12/08 10:38:01;;;;;;;25.23;15.02;;;8.90;78.20;;;;;;5069455;28;20048;-57
2023/12/08 10:40:30;;;;;;;25.92;14.65;;;9.00;78.30;;;;;;5070509;28;20055;-59
2023/12/08 10:42:59;;;;;;;22.25;15.13;;;9.00;78.40;;;;;;5062077;28;20479;-59
2023/12/08 10:45:26;;;;;;;19.08;13.52;;;9.00;78.50;;;;;;5067347;28;20696;-57
2023/12/08 10:47:54;;;;;;;21.05;12.55;;;9.10;78.60;;;;;;5069653;28;20047;-57
2023/12/08 10:50:30;;;;;;;23.10;12.55;;;9.10;78.70;;;;;;5065137;28;20112;-56
2023/12/08 10:53:00;;;;;;;18.67;11.90;;;9.20;78.80;;;;;;5065674;28;20673;-57
2023/12/08 10:55:29;;;;;;;20.50;12.00;;;9.20;78.70;;;;;;5064440;28;20090;-55
2023/12/08 10:57:58;;;;;;;22.98;12.02;;;9.20;78.80;;;;;;5068841;28;20045;-54
2023/12/08 11:00:32;;;;;;;18.88;10.98;;;9.30;79.50;;;;;;5070116;28;20053;-55
2023/12/08 11:03:04;;;;;;;18.75;11.60;;;9.30;78.90;;;;;;5069171;28;20059;-55
2023/12/08 11:05:42;;;;;;;24.60;11.95;;;9.30;79.00;;;;;;5060150;28;20475;-57
2023/12/08 11:08:12;;;;;;;18.42;10.25;;;9.40;79.10;;;;;;5069768;28;20048;-53
2023/12/08 11:10:44;;;;;;;15.80;10.10;;;9.40;79.00;;;;;;5069907;28;20033;-55
2023/12/08 11:13:29;;;;;;;16.98;9.98;;;9.40;79.20;;;;;;5058584;28;20449;-57
2023/12/08 11:16:01;;;;;;;17.48;9.95;;;9.50;79.60;;;;;;5069260;28;20525;-55
2023/12/08 11:18:39;;;;;;;21.75;10.85;;;9.50;79.30;;;;;;5069660;28;20090;-55
2023/12/08 11:21:10;;;;;;;19.25;10.70;;;9.60;79.30;;;;;;5049516;28;20562;-56
2023/12/08 11:23:40;;;;;;;18.60;10.77;;;9.60;79.40;;;;;;5066925;28;20055;-57
2023/12/08 11:26:40;;;;;;;16.40;10.43;;;9.60;79.30;;;;;;5066693;28;20048;-55
2023/12/08 11:29:43;;;;;;;16.40;9.55;;;9.70;79.80;;;;;;5073625;28;20043;-54
2023/12/08 11:32:17;;;;;;;18.92;9.73;;;9.70;79.80;;;;;;5071706;28;20052;-53
2023/12/08 11:34:56;;;;;;;19.25;10.15;;;9.80;79.20;;;;;;5067370;28;20039;-54
2023/12/08 11:37:30;;;;;;;20.17;10.43;;;9.80;79.60;;;;;;5068481;28;20124;-55
2023/12/08 11:40:01;;;;;;;19.30;10.93;;;9.80;79.40;;;;;;5069778;28;20047;-54
2023/12/08 11:42:33;;;;;;;23.92;11.50;;;9.80;79.50;;;;;;5066173;28;20054;-55
2023/12/08 11:45:00;;;;;;;18.83;11.13;;;9.90;79.60;;;;;;5073678;28;20460;-54
2023/12/08 11:47:28;;;;;;;20.52;11.70;;;9.90;79.60;;;;;;5071749;28;20033;-54
2023/12/08 11:49:56;;;;;;;17.90;10.55;;;9.90;79.60;;;;;;5063367;28;20041;-54
2023/12/08 11:52:28;;;;;;;19.92;11.98;;;10.00;79.60;;;;;;5073623;28;20119;-55
2023/12/08 11:55:20;;;;;;;19.65;10.88;;;10.00;79.70;;;;;;5066726;28;20045;-54
2023/12/08 11:58:08;;;;;;;21.58;11.57;;;10.00;79.80;;;;;;5072045;28;20063;-57
2023/12/08 12:00:38;;;;;;;27.27;13.02;;;10.10;79.60;;;;;;5073047;28;20490;-56
2023/12/08 12:03:07;;;;;;;18.30;12.35;;;10.10;79.60;;;;;;5069728;28;20041;-56
2023/12/08 12:05:41;;;;;;;20.05;11.48;;;10.20;79.70;;;;;;5058033;28;20072;-56
2023/12/08 12:08:22;;;;;;;19.58;12.07;;;10.20;79.70;;;;;;5072740;28;20072;-57
2023/12/08 12:11:01;;;;;;;19.80;11.15;;;10.20;79.80;;;;;;5072124;28;20040;-59
2023/12/08 12:13:37;;;;;;;23.48;12.48;;;10.30;79.70;;;;;;5058802;28;20047;-57
2023/12/08 12:16:08;;;;;;;26.27;12.88;;;10.30;79.60;;;;;;5063880;28;20056;-57
2023/12/08 12:18:37;;;;;;;19.92;12.43;;;10.30;79.40;;;;;;5068415;28;20040;-57
2023/12/08 12:21:07;;;;;;;23.17;12.68;;;10.30;79.30;;;;;;5064765;28;20119;-54
2023/12/08 12:23:37;;;;;;;26.92;12.55;;;10.40;79.30;;;;;;5068297;28;20064;-56
2023/12/08 12:26:12;;;;;;;21.88;12.18;;;10.40;79.20;;;;;;5071195;28;20071;-56
2023/12/08 12:28:39;;;;;;;22.40;12.52;;;10.40;79.30;;;;;;5071197;28;20052;-56
2023/12/08 12:31:06;;;;;;;22.10;12.30;;;10.50;79.30;;;;;;5068762;28;20155;-57
2023/12/08 12:33:36;;;;;;;28.02;13.13;;;10.50;79.30;;;;;;5063540;28;20462;-59
2023/12/08 12:36:08;;;;;;;24.95;12.77;;;10.50;79.20;;;;;;5062868;28;20040;-57
2023/12/08 12:38:34;;;;;;;26.48;12.95;;;10.50;79.10;;;;;;5059877;28;20063;-56
2023/12/08 12:41:24;;;;;;;25.00;13.60;;;10.60;79.10;;;;;;5058541;28;20051;-56
2023/12/08 12:43:59;;;;;;;22.83;11.63;;;10.60;79.40;;;;;;5063483;28;20048;-57
2023/12/08 12:46:28;;;;;;;;;;;10.60;79.10;;;;;;5066418;28;20041;-58
2023/12/08 12:48:55;;;;;;;25.33;12.00;;;10.60;79.30;;;;;;5063275;28;20358;-58